createdAt,value
2019-03-01T00:02:02.170Z,17.20
2019-03-01T00:04:12.676Z,19.00
2019-03-01T00:06:19.992Z,19.03
2019-03-01T00:09:19.019Z,17.60
2019-03-01T00:11:51.471Z,17.63
2019-03-01T00:14:27.110Z,18.40
2019-03-01T00:17:23.056Z,18.60
2019-03-01T00:19:54.156Z,18.40
2019-03-01T00:22:23.525Z,18.80
2019-03-01T00:25:02.691Z,18.77
2019-03-01T00:27:37.838Z,19.90
2019-03-01T00:30:34.698Z,19.90
2019-03-01T00:32:50.931Z,17.90
2019-03-01T00:35:08.216Z,21.83
2019-03-01T00:37:32.530Z,20.43
2019-03-01T00:40:02.849Z,19.90
2019-03-01T00:42:27.523Z,21.33
2019-03-01T00:44:41.809Z,20.27
2019-03-01T00:46:46.209Z,20.50
2019-03-01T00:48:50.093Z,19.97
2019-03-01T00:50:53.917Z,21.60
2019-03-01T00:52:57.790Z,21.00
2019-03-01T00:55:05.001Z,21.80
2019-03-01T00:57:09.096Z,22.07
2019-03-01T00:59:13.040Z,23.70
2019-03-01T01:01:17.381Z,23.27
2019-03-01T01:03:21.513Z,21.77
2019-03-01T01:05:25.398Z,23.20
2019-03-01T01:07:29.360Z,22.50
2019-03-01T01:09:33.278Z,22.33
2019-03-01T01:11:37.173Z,24.03
2019-03-01T01:13:41.042Z,23.43
2019-03-01T01:15:44.938Z,22.67
2019-03-01T01:17:49.156Z,21.77
2019-03-01T01:19:52.984Z,23.30
2019-03-01T01:21:56.831Z,22.70
2019-03-01T01:24:00.698Z,25.20
2019-03-01T01:26:04.715Z,24.50
2019-03-01T01:28:08.607Z,25.10
2019-03-01T01:30:13.094Z,23.77
2019-03-01T01:36:49.120Z,25.50
2019-03-01T01:43:39.198Z,26.30
2019-03-01T01:46:39.771Z,24.17
2019-03-01T01:48:59.287Z,25.23
2019-03-01T01:58:37.506Z,26.97
2019-03-01T02:01:13.493Z,28.43
2019-03-01T02:10:49.896Z,27.50
2019-03-01T02:17:30.793Z,28.90
2019-03-01T02:20:19.150Z,28.20
2019-03-01T02:23:33.952Z,27.97
2019-03-01T02:26:48.502Z,31.97
2019-03-01T02:30:29.644Z,31.80
2019-03-01T02:39:34.876Z,33.00
2019-03-01T02:42:03.046Z,31.40
2019-03-01T02:48:35.468Z,34.10
2019-03-01T02:54:20.903Z,32.97
2019-03-01T02:55:02.242Z,34.33
2019-03-01T02:57:06.788Z,35.07
2019-03-01T02:59:50.729Z,36.50
2019-03-01T03:02:24.782Z,35.90
2019-03-01T03:05:32.112Z,37.47
2019-03-01T03:08:18.220Z,33.17
2019-03-01T03:18:39.574Z,34.83
2019-03-01T03:37:54.769Z,33.17
2019-03-01T03:47:27.705Z,32.07
2019-03-01T03:50:52.246Z,31.80
2019-03-01T04:12:34.623Z,35.20
2019-03-01T04:44:48.718Z,38.90
2019-03-01T05:22:42.635Z,43.80
2019-03-01T05:28:34.733Z,42.43
2019-03-01T05:38:03.063Z,42.20
2019-03-01T05:41:09.754Z,40.30
2019-03-01T05:44:43.632Z,39.80
2019-03-01T05:53:40.204Z,42.60
2019-03-01T06:13:03.867Z,39.10
2019-03-01T06:16:19.593Z,40.83
2019-03-01T06:26:05.755Z,40.67
2019-03-01T06:41:38.496Z,40.70
2019-03-01T06:44:52.511Z,40.13
2019-03-01T06:47:41.731Z,38.07
2019-03-01T06:53:14.530Z,39.97
2019-03-01T06:59:51.018Z,39.50
2019-03-01T07:00:24.726Z,40.63
2019-03-01T07:03:06.442Z,38.17
2019-03-01T07:13:08.354Z,38.00
2019-03-01T07:16:29.645Z,39.23
2019-03-01T07:19:09.735Z,38.50
2019-03-01T07:24:51.142Z,37.57
2019-03-01T07:28:06.420Z,38.80
2019-03-01T07:33:52.529Z,38.60
2019-03-01T07:39:40.984Z,38.17
2019-03-01T07:43:16.810Z,36.97
2019-03-01T07:45:27.258Z,39.77
2019-03-01T07:50:52.462Z,39.37
2019-03-01T08:17:03.745Z,41.53
2019-03-01T08:22:33.846Z,41.50
2019-03-01T08:25:23.246Z,43.50
2019-03-01T08:38:40.122Z,40.03
2019-03-01T08:41:29.595Z,40.13
2019-03-01T09:11:15.964Z,35.87
2019-03-01T09:15:00.025Z,35.23
2019-03-01T09:23:32.315Z,33.93
2019-03-01T09:26:51.701Z,34.43
2019-03-01T09:37:06.076Z,34.33
2019-03-01T09:43:59.509Z,34.70
2019-03-01T09:46:52.949Z,34.70
2019-03-01T09:49:47.629Z,34.10
2019-03-01T09:53:04.943Z,34.57
2019-03-01T09:55:04.806Z,34.50
2019-03-01T09:57:08.692Z,37.47
2019-03-01T09:59:12.653Z,35.57
2019-03-01T10:01:17.894Z,34.70
2019-03-01T10:03:21.880Z,36.80
2019-03-01T10:05:25.676Z,37.70
2019-03-01T10:07:29.522Z,39.97
2019-03-01T10:09:33.416Z,39.40
2019-03-01T10:11:37.523Z,36.80
2019-03-01T10:13:41.475Z,39.37
2019-03-01T10:15:45.460Z,39.57
2019-03-01T10:17:49.259Z,42.07
2019-03-01T10:19:53.147Z,46.43
2019-03-01T10:21:57.051Z,43.43
2019-03-01T10:24:00.926Z,43.70
2019-03-01T10:26:04.984Z,46.57
2019-03-01T10:28:09.116Z,52.10
2019-03-01T10:30:17.848Z,43.57
2019-03-01T10:32:21.733Z,49.03
2019-03-01T10:34:25.870Z,48.50
2019-03-01T10:36:29.711Z,52.83
2019-03-01T10:38:33.682Z,50.87
2019-03-01T10:40:37.826Z,46.30
2019-03-01T10:42:41.682Z,52.00
2019-03-01T10:44:45.640Z,48.70
2019-03-01T10:46:49.663Z,43.80
2019-03-01T10:48:53.663Z,42.90
2019-03-01T10:50:57.562Z,37.73
2019-03-01T10:53:01.560Z,40.83
2019-03-01T10:55:06.390Z,42.50
2019-03-01T10:57:10.556Z,42.97
2019-03-01T10:59:14.447Z,41.97
2019-03-01T11:01:18.315Z,37.30
2019-03-01T11:03:21.647Z,33.40
2019-03-01T11:05:25.631Z,33.13
2019-03-01T11:07:29.612Z,35.67
2019-03-01T11:09:33.404Z,37.90
2019-03-01T11:11:37.222Z,37.40
2019-03-01T11:13:41.047Z,38.03
2019-03-01T11:15:44.971Z,36.40
2019-03-01T11:17:48.863Z,32.33
2019-03-01T11:19:53.049Z,37.83
2019-03-01T11:21:56.904Z,27.07
2019-03-01T11:24:00.808Z,30.40
2019-03-01T11:26:04.800Z,31.93
2019-03-01T11:28:10.443Z,32.10
2019-03-01T11:30:19.580Z,29.60
2019-03-01T11:32:23.569Z,29.93
2019-03-01T11:34:27.367Z,25.90
2019-03-01T11:36:31.167Z,24.40
2019-03-01T11:38:35.031Z,23.93
2019-03-01T11:40:39.010Z,25.20
2019-03-01T11:42:42.870Z,25.80
2019-03-01T11:44:46.703Z,26.13
2019-03-01T11:46:50.490Z,26.13
2019-03-01T11:48:54.363Z,27.10
2019-03-01T11:50:58.183Z,26.33
2019-03-01T11:53:02.551Z,28.57
2019-03-01T11:55:06.976Z,26.37
2019-03-01T11:57:10.946Z,23.33
2019-03-01T11:59:18.983Z,23.50
2019-03-01T12:01:22.844Z,20.83
2019-03-01T12:03:26.675Z,22.60
2019-03-01T12:05:30.349Z,21.37
2019-03-01T12:07:34.204Z,20.13
2019-03-01T12:09:38.071Z,17.43
2019-03-01T12:11:42.167Z,20.80
2019-03-01T12:13:45.970Z,20.23
2019-03-01T12:15:49.778Z,16.00
2019-03-01T12:17:53.710Z,17.67
2019-03-01T12:19:57.844Z,15.70
2019-03-01T12:22:02.029Z,14.07
2019-03-01T12:24:05.955Z,16.97
2019-03-01T12:26:09.776Z,16.00
2019-03-01T12:28:13.554Z,18.53
2019-03-01T12:30:19.255Z,17.37
2019-03-01T12:32:23.279Z,19.13
2019-03-01T12:34:27.208Z,18.40
2019-03-01T12:36:30.995Z,17.33
2019-03-01T12:38:34.875Z,18.30
2019-03-01T12:40:38.983Z,16.90
2019-03-01T12:42:42.848Z,18.67
2019-03-01T12:44:46.638Z,20.33
2019-03-01T12:46:50.440Z,18.67
2019-03-01T12:48:54.680Z,18.33
2019-03-01T12:50:58.471Z,18.60
2019-03-01T12:53:02.327Z,16.60
2019-03-01T12:55:07.083Z,14.60
2019-03-01T12:57:10.906Z,18.93
2019-03-01T12:59:14.768Z,18.73
2019-03-01T13:01:18.579Z,18.90
2019-03-01T13:03:22.369Z,19.40
2019-03-01T13:05:29.243Z,17.83
2019-03-01T13:07:31.796Z,18.10
2019-03-01T13:09:35.659Z,18.17
2019-03-01T13:11:39.490Z,19.43
2019-03-01T13:13:43.358Z,17.20
2019-03-01T13:15:49.651Z,16.43
2019-03-01T13:17:52.736Z,16.70
2019-03-01T13:19:57.635Z,19.57
2019-03-01T13:22:02.043Z,19.30
2019-03-01T13:24:05.950Z,17.00
2019-03-01T13:26:11.318Z,16.70
2019-03-01T13:28:15.127Z,18.30
2019-03-01T13:30:20.303Z,14.43
2019-03-01T13:32:24.108Z,15.63
2019-03-01T13:34:27.954Z,17.20
2019-03-01T13:36:31.734Z,16.63
2019-03-01T13:38:35.795Z,12.67
2019-03-01T13:40:39.676Z,16.00
2019-03-01T13:42:43.482Z,14.50
2019-03-01T13:44:47.306Z,14.83
2019-03-01T13:46:51.187Z,14.20
2019-03-01T13:48:55.027Z,14.90
2019-03-01T13:50:58.947Z,23.00
2019-03-01T13:53:02.746Z,14.20
2019-03-01T13:55:06.733Z,14.63
2019-03-01T13:57:11.488Z,14.57
2019-03-01T13:59:16.127Z,13.60
2019-03-01T14:01:19.943Z,16.07
2019-03-01T14:03:25.356Z,15.50
2019-03-01T14:05:29.490Z,14.30
2019-03-01T14:07:32.807Z,14.93
2019-03-01T14:09:36.877Z,15.33
2019-03-01T14:11:40.734Z,15.63
2019-03-01T14:13:47.826Z,13.77
2019-03-01T14:15:50.566Z,17.23
2019-03-01T14:17:57.606Z,16.63
2019-03-01T14:19:59.954Z,14.50
2019-03-01T14:22:04.849Z,17.77
2019-03-01T14:24:09.531Z,16.00
2019-03-01T14:26:15.055Z,16.30
2019-03-01T14:28:18.955Z,15.63
2019-03-01T14:30:25.296Z,15.20
2019-03-01T14:32:28.535Z,16.97
2019-03-01T14:34:32.318Z,15.30
2019-03-01T14:36:36.118Z,14.17
2019-03-01T14:38:40.027Z,12.60
2019-03-01T14:40:43.832Z,12.63
2019-03-01T14:42:47.807Z,11.60
2019-03-01T14:44:51.735Z,12.03
2019-03-01T14:46:56.211Z,9.93
2019-03-01T14:49:00.859Z,11.80
2019-03-01T14:51:07.069Z,10.30
2019-03-01T14:53:10.315Z,11.83
2019-03-01T14:55:19.789Z,10.00
2019-03-01T14:57:34.288Z,11.67
2019-03-01T15:00:21.843Z,12.00
2019-03-01T15:02:49.119Z,10.20
2019-03-01T15:04:54.359Z,9.90
2019-03-01T15:06:58.247Z,9.03
2019-03-01T15:09:02.115Z,10.47
2019-03-01T15:11:11.216Z,8.00
2019-03-01T15:13:15.139Z,8.67
2019-03-01T15:15:19.087Z,6.30
2019-03-01T15:17:22.976Z,7.17
2019-03-01T15:19:26.851Z,7.23
2019-03-01T15:21:33.962Z,7.30
2019-03-01T15:23:36.346Z,6.80
2019-03-01T15:25:40.155Z,6.13
2019-03-01T15:27:44.227Z,5.30
2019-03-01T15:29:48.074Z,5.93
2019-03-01T15:31:54.990Z,6.23
2019-03-01T15:33:57.982Z,6.17
2019-03-01T15:36:01.886Z,7.10
2019-03-01T15:38:05.836Z,6.27
2019-03-01T15:40:09.774Z,7.10
2019-03-01T15:42:14.289Z,6.33
2019-03-01T15:44:19.079Z,5.23
2019-03-01T15:46:23.030Z,6.20
2019-03-01T15:48:26.805Z,5.73
2019-03-01T15:50:30.607Z,5.67
2019-03-01T15:52:34.398Z,5.50
2019-03-01T15:54:38.547Z,5.50
2019-03-01T15:56:42.923Z,5.03
2019-03-01T15:58:47.604Z,4.87
2019-03-01T16:00:54.561Z,5.63
2019-03-01T16:02:58.411Z,5.20
2019-03-01T16:05:02.369Z,5.23
2019-03-01T16:07:06.619Z,4.50
2019-03-01T16:09:15.641Z,5.07
2019-03-01T16:11:19.523Z,4.70
2019-03-01T16:13:23.396Z,4.20
2019-03-01T16:15:27.267Z,4.60
2019-03-01T16:17:31.139Z,3.70
2019-03-01T16:19:34.931Z,4.17
2019-03-01T16:21:39.763Z,5.43
2019-03-01T16:23:43.691Z,4.20
2019-03-01T16:25:47.471Z,4.13
2019-03-01T16:27:54.328Z,3.60
2019-03-01T16:29:56.886Z,5.63
2019-03-01T16:32:00.731Z,4.30
2019-03-01T16:34:05.341Z,4.97
2019-03-01T16:36:15.828Z,5.23
2019-03-01T16:38:19.699Z,4.87
2019-03-01T16:40:23.482Z,4.37
2019-03-01T16:42:27.464Z,6.00
2019-03-01T16:44:31.411Z,15.23
2019-03-01T16:46:35.311Z,5.90
2019-03-01T16:48:39.804Z,5.00
2019-03-01T16:50:44.800Z,5.77
2019-03-01T16:53:04.268Z,6.10
2019-03-01T16:55:05.692Z,4.90
2019-03-01T16:57:11.826Z,4.00
2019-03-01T16:59:15.235Z,4.40
2019-03-01T17:01:19.055Z,4.30
2019-03-01T17:03:22.846Z,6.80
2019-03-01T17:05:26.630Z,5.83
2019-03-01T17:07:30.759Z,4.70
2019-03-01T17:09:34.792Z,5.20
2019-03-01T17:11:41.536Z,4.33
2019-03-01T17:13:44.167Z,5.07
2019-03-01T17:15:48.527Z,5.23
2019-03-01T17:17:53.095Z,5.17
2019-03-01T17:19:58.743Z,5.83
2019-03-01T17:22:02.566Z,5.33
2019-03-01T17:24:06.439Z,5.17
2019-03-01T17:26:10.242Z,4.87
2019-03-01T17:28:16.822Z,4.70
2019-03-01T17:30:20.854Z,4.20
2019-03-01T17:32:24.634Z,4.83
2019-03-01T17:34:29.454Z,4.27
2019-03-01T17:36:33.403Z,4.37
2019-03-01T17:38:43.503Z,6.00
2019-03-01T17:40:42.855Z,17.97
2019-03-01T17:42:46.666Z,47.73
2019-03-01T17:44:50.775Z,11.93
2019-03-01T17:46:54.567Z,8.13
2019-03-01T17:48:58.759Z,4.60
2019-03-01T17:51:02.624Z,5.23
2019-03-01T17:53:09.539Z,8.57
2019-03-01T17:55:12.319Z,5.50
2019-03-01T17:57:16.203Z,4.90
2019-03-01T17:59:19.987Z,6.10
2019-03-01T18:01:24.362Z,4.10
2019-03-01T18:03:28.167Z,5.53
2019-03-01T18:05:31.974Z,4.00
2019-03-01T18:07:35.851Z,4.10
2019-03-01T18:09:39.972Z,3.50
2019-03-01T18:11:44.552Z,4.83
2019-03-01T18:13:49.234Z,4.47
2019-03-01T18:15:53.024Z,4.73
2019-03-01T18:17:56.899Z,5.27
2019-03-01T18:20:01.565Z,4.60
2019-03-01T18:22:06.590Z,4.40
2019-03-01T18:24:11.063Z,4.80
2019-03-01T18:26:16.046Z,5.50
2019-03-01T18:28:20.079Z,4.10
2019-03-01T18:30:25.439Z,4.13
2019-03-01T18:32:29.373Z,5.73
2019-03-01T18:34:35.589Z,4.53
2019-03-01T18:36:38.742Z,4.17
2019-03-01T18:38:42.555Z,6.40
2019-03-01T18:40:48.487Z,9.53
2019-03-01T18:42:52.052Z,22.80
2019-03-01T18:44:55.831Z,6.93
2019-03-01T18:46:59.638Z,4.57
2019-03-01T18:49:03.990Z,5.00
2019-03-01T18:51:08.158Z,4.47
2019-03-01T18:53:12.111Z,3.80
2019-03-01T18:55:17.449Z,3.83
2019-03-01T18:57:21.850Z,3.30
2019-03-01T18:59:25.752Z,4.20
2019-03-01T19:01:29.695Z,3.40
2019-03-01T19:03:36.529Z,3.23
2019-03-01T19:05:40.118Z,6.00
2019-03-01T19:07:44.722Z,5.27
2019-03-01T19:09:48.700Z,6.40
2019-03-01T19:11:54.192Z,5.60
2019-03-01T19:13:58.508Z,7.70
2019-03-01T19:16:03.568Z,5.50
2019-03-01T19:18:07.460Z,5.00
2019-03-01T19:20:13.667Z,5.17
2019-03-01T19:22:17.451Z,4.27
2019-03-01T19:24:21.558Z,7.87
2019-03-01T19:26:25.460Z,7.20
2019-03-01T19:28:29.337Z,5.20
2019-03-01T19:30:33.317Z,4.60
2019-03-01T19:32:39.043Z,5.80
2019-03-01T19:34:46.182Z,5.90
2019-03-01T19:36:53.571Z,6.03
2019-03-01T19:39:00.460Z,6.10
2019-03-01T19:41:04.910Z,4.33
2019-03-01T19:43:10.215Z,4.27
2019-03-01T19:45:15.771Z,5.27
2019-03-01T19:47:26.470Z,4.83
2019-03-01T19:49:30.243Z,5.40
2019-03-01T19:51:37.412Z,5.60
2019-03-01T19:53:39.607Z,5.47
2019-03-01T19:55:43.957Z,5.60
2019-03-01T19:57:49.419Z,5.70
2019-03-01T19:59:53.308Z,5.73
2019-03-01T20:01:57.170Z,5.67
2019-03-01T20:04:00.951Z,6.37
2019-03-01T20:06:08.081Z,5.23
2019-03-01T20:08:10.498Z,5.27
2019-03-01T20:10:16.007Z,5.50
2019-03-01T20:12:19.943Z,4.47
2019-03-01T20:14:23.811Z,4.77
2019-03-01T20:16:28.063Z,5.40
2019-03-01T20:18:32.214Z,10.20
2019-03-01T20:20:38.234Z,10.07
2019-03-01T20:22:42.108Z,6.73
2019-03-01T20:24:45.952Z,6.03
2019-03-01T20:26:50.165Z,6.87
2019-03-01T20:28:54.215Z,5.77
2019-03-01T20:30:58.099Z,6.03
2019-03-01T20:33:02.059Z,6.60
2019-03-01T20:35:09.590Z,6.90
2019-03-01T20:37:11.876Z,5.77
2019-03-01T20:39:17.807Z,5.00
2019-03-01T20:41:21.630Z,4.10
2019-03-01T20:43:25.767Z,3.50
2019-03-01T20:45:30.233Z,3.83
2019-03-01T20:47:35.227Z,3.70
2019-03-01T20:49:39.386Z,3.80
2019-03-01T20:51:44.511Z,3.10
2019-03-01T20:53:49.589Z,2.73
2019-03-01T20:55:53.962Z,3.30
2019-03-01T20:58:03.121Z,3.60
2019-03-01T21:00:07.734Z,3.17
2019-03-01T21:02:13.130Z,3.63
2019-03-01T21:04:17.413Z,5.70
2019-03-01T21:06:21.350Z,4.20
2019-03-01T21:08:28.763Z,3.70
2019-03-01T21:10:31.191Z,3.80
2019-03-01T21:12:36.692Z,2.40
2019-03-01T21:14:40.547Z,2.80
2019-03-01T21:16:44.849Z,3.97
2019-03-01T21:18:49.516Z,3.20
2019-03-01T21:20:53.742Z,2.90
2019-03-01T21:22:58.422Z,4.10
2019-03-01T21:25:03.264Z,3.13
2019-03-01T21:27:07.882Z,5.03
2019-03-01T21:29:14.433Z,4.00
2019-03-01T21:31:18.258Z,4.50
2019-03-01T21:33:24.155Z,4.77
2019-03-01T21:35:27.723Z,3.70
2019-03-01T21:37:34.718Z,3.30
2019-03-01T21:39:37.167Z,4.50
2019-03-01T21:41:41.464Z,3.20
2019-03-01T21:43:46.891Z,5.00
2019-03-01T21:45:50.734Z,3.00
2019-03-01T21:47:54.607Z,4.57
2019-03-01T21:49:59.935Z,3.70
2019-03-01T21:52:04.015Z,5.47
2019-03-01T21:54:07.790Z,4.10
2019-03-01T21:57:02.375Z,2.77
2019-03-01T22:08:51.024Z,4.00
2019-03-01T22:11:59.177Z,5.87
2019-03-01T22:14:37.227Z,3.73
2019-03-01T22:17:48.763Z,4.93
2019-03-01T22:20:32.705Z,3.80
2019-03-01T22:26:28.759Z,3.73
2019-03-01T22:29:47.283Z,3.97
2019-03-01T22:32:27.128Z,3.10
2019-03-01T22:35:40.322Z,3.07
2019-03-01T22:38:24.522Z,4.33
2019-03-01T22:41:41.962Z,3.80
2019-03-01T22:47:28.309Z,3.53
2019-03-01T22:50:26.573Z,3.43
2019-03-01T22:53:19.924Z,5.70
2019-03-01T22:55:57.755Z,2.80
2019-03-01T22:58:47.170Z,3.17
2019-03-01T23:01:47.036Z,3.50
2019-03-01T23:08:18.716Z,2.80
2019-03-01T23:13:25.400Z,3.40
2019-03-01T23:16:19.700Z,4.60
2019-03-01T23:19:19.053Z,3.80
2019-03-01T23:24:55.085Z,4.33
2019-03-01T23:27:57.157Z,4.97
2019-03-01T23:31:00.483Z,4.33
2019-03-01T23:40:35.771Z,4.50
2019-03-01T23:43:27.645Z,5.10
2019-03-01T23:45:55.183Z,4.40
2019-03-01T23:48:35.718Z,5.10
2019-03-01T23:54:50.318Z,5.00
2019-03-01T23:57:43.576Z,5.53
